Time;durP1;ratioP1;P1;durP2;ratioP2;P2;SDS_P1;SDS_P2;PMS_P1;PMS_P2;Temp;Humidity;BMP_temperature;BMP_pressure;BME280_temperature;BME280_humidity;BME280_pressure;Samples;Min_cycle;Max_cycle;Signal;HPM_P1;HPM_P2
2022/03/11 00:21:51;;;;;;;10.00;7.70;;;;;;;;;;4215516;29;20448;-66
2022/03/11 00:24:17;;;;;;;12.48;8.50;;;;;;;;;;4146880;34;20214;-65
2022/03/11 00:26:43;;;;;;;12.93;8.98;;;;;;;;;;4144970;34;20104;-65
2022/03/11 00:29:09;;;;;;;12.93;9.00;;;;;;;;;;4137606;34;20207;-65
2022/03/11 00:31:35;;;;;;;9.63;8.45;;;;;;;;;;4128174;34;20227;-65
2022/03/11 00:34:01;;;;;;;13.55;9.82;;;;;;;;;;4124214;34;20125;-65
2022/03/11 00:36:27;;;;;;;12.05;8.95;;;;;;;;;;4124060;34;20112;-65
2022/03/11 00:38:53;;;;;;;11.15;8.90;;;;;;;;;;4126501;34;20150;-64
2022/03/11 00:41:19;;;;;;;11.70;8.82;;;;;;;;;;4135924;34;20983;-65
2022/03/11 00:43:45;;;;;;;11.93;8.73;;;;;;;;;;4137420;34;20131;-64
2022/03/11 00:46:11;;;;;;;12.30;8.18;;;;;;;;;;4137092;34;20468;-65
2022/03/11 00:48:37;;;;;;;14.25;8.57;;;;;;;;;;4137512;34;20448;-65
2022/03/11 00:51:03;;;;;;;13.77;9.18;;;;;;;;;;4137790;34;20243;-65
2022/03/11 00:53:29;;;;;;;12.82;7.93;;;;;;;;;;4137382;34;20119;-63
2022/03/11 00:55:55;;;;;;;11.10;7.50;;;;;;;;;;4135158;34;20195;-64
2022/03/11 00:58:21;;;;;;;11.30;7.95;;;;;;;;;;4123969;34;20541;-63
2022/03/11 01:00:48;;;;;;;9.52;7.72;;;;;;;;;;4124027;34;20116;-63
2022/03/11 01:03:14;;;;;;;12.75;7.47;;;;;;;;;;4122568;34;20115;-64
2022/03/11 01:05:40;;;;;;;11.48;8.02;;;;;;;;;;4133513;34;20477;-63
2022/03/11 01:08:06;;;;;;;10.90;7.45;;;;;;;;;;4123902;34;20216;-64
2022/03/11 01:10:32;;;;;;;13.62;7.70;;;;;;;;;;4123880;34;20155;-63
2022/03/11 01:12:58;;;;;;;8.82;7.28;;;;;;;;;;4124031;34;20128;-65
2022/03/11 01:15:24;;;;;;;10.30;7.62;;;;;;;;;;4123995;34;20561;-65
2022/03/11 01:17:50;;;;;;;11.23;7.90;;;;;;;;;;4123733;34;20203;-66
2022/03/11 01:20:16;;;;;;;11.85;7.93;;;;;;;;;;4123869;34;20536;-66
2022/03/11 01:22:42;;;;;;;10.80;7.62;;;;;;;;;;4128170;34;20100;-66
2022/03/11 01:25:09;;;;;;;9.85;7.32;;;;;;;;;;4137379;34;20134;-66
2022/03/11 01:27:36;;;;;;;8.98;7.47;;;;;;;;;;4137088;34;20112;-66
2022/03/11 01:30:05;;;;;;;10.77;7.40;;;;;;;;;;4136979;34;20194;-66
2022/03/11 01:32:31;;;;;;;11.38;7.70;;;;;;;;;;4136996;34;20099;-66
2022/03/11 01:34:57;;;;;;;13.70;7.90;;;;;;;;;;4136229;34;20103;-66
2022/03/11 01:37:23;;;;;;;9.63;7.15;;;;;;;;;;4137012;34;20143;-66
2022/03/11 01:39:49;;;;;;;9.57;7.82;;;;;;;;;;4136900;34;20110;-66
2022/03/11 01:42:15;;;;;;;10.68;7.80;;;;;;;;;;4136938;34;20526;-66
2022/03/11 01:44:41;;;;;;;11.63;7.40;;;;;;;;;;4136931;34;20135;-66
2022/03/11 01:47:07;;;;;;;9.70;7.30;;;;;;;;;;4136853;34;20228;-66
2022/03/11 01:49:34;;;;;;;12.07;7.70;;;;;;;;;;4136821;34;20110;-66
2022/03/11 01:52:00;;;;;;;11.98;8.30;;;;;;;;;;4136637;34;20203;-65
2022/03/11 01:54:26;;;;;;;10.73;7.68;;;;;;;;;;4137158;34;20104;-66
2022/03/11 01:56:52;;;;;;;10.38;7.68;;;;;;;;;;4136653;34;20127;-66
2022/03/11 01:59:18;;;;;;;11.35;7.62;;;;;;;;;;4137162;34;20111;-65
2022/03/11 02:01:44;;;;;;;10.35;7.82;;;;;;;;;;4135303;34;20192;-66
2022/03/11 02:04:11;;;;;;;9.93;7.60;;;;;;;;;;4136745;34;20146;-67
2022/03/11 02:06:37;;;;;;;10.27;7.40;;;;;;;;;;4136928;34;20095;-65
2022/03/11 02:09:03;;;;;;;10.18;7.22;;;;;;;;;;4136978;34;20127;-65
2022/03/11 02:11:29;;;;;;;10.35;7.75;;;;;;;;;;4136671;34;20111;-65
2022/03/11 02:13:57;;;;;;;9.50;7.78;;;;;;;;;;4136717;34;20543;-65
2022/03/11 02:16:26;;;;;;;10.05;7.68;;;;;;;;;;4136717;34;20115;-65
2022/03/11 02:18:52;;;;;;;9.40;7.22;;;;;;;;;;4136709;34;20102;-65
2022/03/11 02:21:19;;;;;;;11.12;7.47;;;;;;;;;;4124432;34;20106;-65
2022/03/11 02:23:47;;;;;;;13.52;7.93;;;;;;;;;;4136550;34;20216;-65
2022/03/11 02:26:14;;;;;;;13.75;8.23;;;;;;;;;;4136596;34;20138;-65
2022/03/11 02:28:40;;;;;;;11.25;8.48;;;;;;;;;;4136565;34;20091;-65
2022/03/11 02:31:06;;;;;;;10.13;6.72;;;;;;;;;;4131924;34;20116;-67
2022/03/11 02:33:32;;;;;;;13.65;7.85;;;;;;;;;;4123181;34;20227;-67
2022/03/11 02:35:59;;;;;;;12.15;7.30;;;;;;;;;;4123839;34;20445;-67
2022/03/11 02:38:26;;;;;;;13.10;8.23;;;;;;;;;;4131122;34;20095;-67
2022/03/11 02:40:52;;;;;;;9.52;7.28;;;;;;;;;;4141432;34;20538;-67
2022/03/11 02:43:18;;;;;;;12.13;8.15;;;;;;;;;;4138160;34;20114;-67
2022/03/11 02:45:44;;;;;;;9.05;7.28;;;;;;;;;;4136385;34;20111;-67
2022/03/11 02:48:10;;;;;;;9.32;7.43;;;;;;;;;;4136187;34;20222;-67
2022/03/11 02:50:36;;;;;;;11.45;8.15;;;;;;;;;;4136790;34;20440;-67
2022/03/11 02:53:02;;;;;;;13.20;8.88;;;;;;;;;;4140874;34;20433;-67
2022/03/11 02:55:28;;;;;;;14.07;9.98;;;;;;;;;;4148362;34;20151;-67
2022/03/11 02:57:54;;;;;;;14.18;11.18;;;;;;;;;;4149844;34;20111;-67
2022/03/11 03:00:20;;;;;;;13.35;10.40;;;;;;;;;;4137515;34;20183;-66
2022/03/11 03:02:46;;;;;;;12.70;9.30;;;;;;;;;;4149735;34;20132;-67
2022/03/11 03:05:13;;;;;;;14.70;10.32;;;;;;;;;;4145809;34;20123;-67
2022/03/11 03:07:40;;;;;;;12.60;9.48;;;;;;;;;;4136314;34;20203;-65
2022/03/11 03:10:07;;;;;;;11.38;8.25;;;;;;;;;;4136186;34;20142;-65
2022/03/11 03:12:33;;;;;;;11.10;7.05;;;;;;;;;;4134783;34;20127;-65
2022/03/11 03:14:59;;;;;;;10.55;7.68;;;;;;;;;;4136242;34;20584;-66
2022/03/11 03:17:25;;;;;;;10.85;7.80;;;;;;;;;;4136129;34;20091;-67
2022/03/11 03:19:51;;;;;;;11.65;8.18;;;;;;;;;;4136054;34;20120;-67
2022/03/11 03:22:17;;;;;;;14.77;7.57;;;;;;;;;;4135980;34;20128;-68
2022/03/11 03:24:43;;;;;;;10.25;7.87;;;;;;;;;;4134437;34;20145;-67
2022/03/11 03:27:10;;;;;;;10.85;8.30;;;;;;;;;;4135962;34;20123;-66
2022/03/11 03:29:36;;;;;;;10.52;8.10;;;;;;;;;;4123485;34;20149;-65
2022/03/11 03:32:03;;;;;;;13.38;8.85;;;;;;;;;;4125178;34;20108;-65
2022/03/11 03:34:32;;;;;;;13.38;8.65;;;;;;;;;;4122813;34;20105;-72
2022/03/11 03:37:00;;;;;;;11.82;8.23;;;;;;;;;;4131529;34;20115;-72
2022/03/11 03:39:26;;;;;;;10.88;8.60;;;;;;;;;;4130584;34;20127;-66
2022/03/11 03:41:53;;;;;;;11.65;8.20;;;;;;;;;;4138681;34;20104;-67
2022/03/11 03:44:20;;;;;;;11.75;7.95;;;;;;;;;;4135765;34;20124;-69
2022/03/11 03:46:46;;;;;;;16.75;8.95;;;;;;;;;;4129590;34;20122;-66
2022/03/11 03:49:12;;;;;;;13.13;8.63;;;;;;;;;;4122376;34;21148;-70
2022/03/11 03:51:39;;;;;;;12.00;7.95;;;;;;;;;;4122542;34;20124;-77
2022/03/11 03:54:06;;;;;;;12.23;8.45;;;;;;;;;;4115533;34;20212;-72
2022/03/11 03:56:36;;;;;;;9.45;7.35;;;;;;;;;;4117717;34;20091;-73
2022/03/11 03:59:04;;;;;;;13.68;8.13;;;;;;;;;;4111302;34;20112;-72
2022/03/11 04:01:33;;;;;;;10.57;7.75;;;;;;;;;;4115240;34;20594;-72
2022/03/11 04:03:59;;;;;;;15.38;7.87;;;;;;;;;;4116862;34;20135;-71
2022/03/11 04:06:25;;;;;;;11.60;7.87;;;;;;;;;;4130709;34;20110;-72
2022/03/11 04:08:51;;;;;;;9.55;7.70;;;;;;;;;;4130063;34;20683;-70
2022/03/11 04:11:18;;;;;;;13.88;8.57;;;;;;;;;;4130500;34;20548;-70
2022/03/11 04:13:44;;;;;;;13.27;8.65;;;;;;;;;;4144381;34;20120;-70
2022/03/11 04:16:10;;;;;;;14.10;8.77;;;;;;;;;;4125601;34;20218;-69
2022/03/11 04:18:36;;;;;;;9.38;7.22;;;;;;;;;;4133585;34;20127;-72
2022/03/11 04:21:02;;;;;;;11.70;7.95;;;;;;;;;;4143720;34;20087;-66
2022/03/11 04:23:29;;;;;;;14.55;8.27;;;;;;;;;;4124198;34;20296;-68
2022/03/11 04:25:55;;;;;;;12.25;8.45;;;;;;;;;;4123856;34;20123;-67
2022/03/11 04:28:21;;;;;;;14.82;8.55;;;;;;;;;;4136367;34;20133;-68
2022/03/11 04:30:47;;;;;;;10.95;8.43;;;;;;;;;;4137720;34;20125;-67
2022/03/11 04:33:13;;;;;;;12.82;8.32;;;;;;;;;;4125004;34;20187;-69
2022/03/11 04:35:39;;;;;;;14.65;8.15;;;;;;;;;;4123537;34;20145;-68
2022/03/11 04:38:05;;;;;;;11.00;7.72;;;;;;;;;;4133973;34;20616;-69
2022/03/11 04:40:31;;;;;;;11.85;7.85;;;;;;;;;;4122645;34;20122;-69
2022/03/11 04:42:57;;;;;;;10.15;7.45;;;;;;;;;;4111895;34;20535;-68
2022/03/11 04:45:23;;;;;;;10.90;7.97;;;;;;;;;;4123179;34;20543;-67
2022/03/11 04:47:49;;;;;;;11.45;8.27;;;;;;;;;;4134054;34;20147;-68
2022/03/11 04:50:15;;;;;;;11.35;8.15;;;;;;;;;;4136653;34;20489;-68
2022/03/11 04:52:41;;;;;;;14.87;8.38;;;;;;;;;;4136201;34;20127;-68
2022/03/11 04:55:07;;;;;;;10.60;8.07;;;;;;;;;;4135744;34;20106;-69
2022/03/11 04:57:33;;;;;;;10.65;7.65;;;;;;;;;;4137338;34;20111;-70
2022/03/11 05:00:00;;;;;;;11.23;7.97;;;;;;;;;;4137184;34;20136;-71
2022/03/11 05:02:30;;;;;;;11.68;8.55;;;;;;;;;;4137358;34;20192;-71
2022/03/11 05:04:56;;;;;;;8.20;7.22;;;;;;;;;;4124531;34;20122;-71
2022/03/11 05:07:22;;;;;;;10.25;7.50;;;;;;;;;;4135735;34;20232;-72
2022/03/11 05:09:48;;;;;;;11.93;8.48;;;;;;;;;;4137059;34;20126;-63
2022/03/11 05:12:14;;;;;;;12.13;8.00;;;;;;;;;;4137242;34;20119;-63
2022/03/11 05:14:40;;;;;;;13.35;9.07;;;;;;;;;;4137118;34;20207;-62
2022/03/11 05:17:06;;;;;;;12.82;8.32;;;;;;;;;;4137148;34;20125;-63
2022/03/11 05:19:32;;;;;;;12.85;8.07;;;;;;;;;;4137273;34;20206;-63
2022/03/11 05:21:58;;;;;;;11.12;8.65;;;;;;;;;;4136979;34;20131;-63
2022/03/11 05:24:24;;;;;;;13.43;8.43;;;;;;;;;;4135395;34;20178;-62
2022/03/11 05:26:50;;;;;;;14.23;9.05;;;;;;;;;;4124755;34;20222;-65
2022/03/11 05:29:16;;;;;;;13.13;9.38;;;;;;;;;;4137007;34;20111;-64
2022/03/11 05:31:42;;;;;;;11.98;8.70;;;;;;;;;;4137061;34;20195;-64
2022/03/11 05:34:08;;;;;;;11.25;9.02;;;;;;;;;;4135500;34;20098;-64
2022/03/11 05:36:35;;;;;;;13.40;9.70;;;;;;;;;;4136968;34;20126;-64
2022/03/11 05:39:01;;;;;;;13.00;9.52;;;;;;;;;;4136850;34;20145;-64
2022/03/11 05:41:27;;;;;;;13.77;10.10;;;;;;;;;;4124615;34;20222;-65
2022/03/11 05:43:53;;;;;;;12.95;9.60;;;;;;;;;;4136794;34;20191;-64
2022/03/11 05:46:19;;;;;;;13.90;9.50;;;;;;;;;;4136905;34;20219;-65
2022/03/11 05:48:45;;;;;;;13.57;9.10;;;;;;;;;;4136800;34;20096;-64
2022/03/11 05:51:11;;;;;;;14.20;10.65;;;;;;;;;;4137161;34;20185;-65
2022/03/11 05:53:37;;;;;;;12.65;10.45;;;;;;;;;;4136780;34;20103;-64
2022/03/11 05:56:04;;;;;;;11.70;9.68;;;;;;;;;;4137129;34;20557;-64
2022/03/11 05:58:30;;;;;;;18.60;11.40;;;;;;;;;;4124062;34;20151;-63
2022/03/11 06:00:56;;;;;;;16.85;11.30;;;;;;;;;;4135343;34;20585;-64
2022/03/11 06:03:22;;;;;;;15.63;11.18;;;;;;;;;;4136750;34;20107;-65
2022/03/11 06:05:48;;;;;;;17.25;11.35;;;;;;;;;;4136652;34;20207;-65
2022/03/11 06:08:14;;;;;;;16.00;11.77;;;;;;;;;;4136738;34;20221;-66
2022/03/11 06:10:40;;;;;;;16.05;11.30;;;;;;;;;;4136760;34;20142;-67
2022/03/11 06:13:06;;;;;;;17.87;11.75;;;;;;;;;;4124305;34;20460;-66
2022/03/11 06:15:32;;;;;;;17.77;12.60;;;;;;;;;;4136696;34;20139;-66
2022/03/11 06:17:58;;;;;;;14.98;11.15;;;;;;;;;;4135421;34;20119;-64
2022/03/11 06:20:25;;;;;;;15.73;11.43;;;;;;;;;;4136377;34;20123;-65
2022/03/11 06:22:53;;;;;;;17.48;12.93;;;;;;;;;;4136181;34;20525;-65
2022/03/11 06:25:20;;;;;;;16.83;12.30;;;;;;;;;;4135095;34;20139;-65
2022/03/11 06:27:46;;;;;;;17.92;12.32;;;;;;;;;;4136565;34;20193;-65
2022/03/11 06:30:12;;;;;;;17.40;13.57;;;;;;;;;;4136528;34;20195;-68
2022/03/11 06:32:47;;;;;;;16.58;12.37;;;;;;;;;;4136517;34;20091;-64
2022/03/11 06:35:13;;;;;;;12.15;10.50;;;;;;;;;;4136449;34;20212;-64
2022/03/11 06:37:41;;;;;;;12.82;9.30;;;;;;;;;;4136468;34;20212;-64
2022/03/11 06:40:08;;;;;;;13.93;10.40;;;;;;;;;;4135088;34;20096;-65
2022/03/11 06:42:41;;;;;;;14.18;9.45;;;;;;;;;;4136665;34;20129;-65
2022/03/11 06:45:08;;;;;;;14.23;9.23;;;;;;;;;;4136347;34;20119;-63
2022/03/11 06:47:34;;;;;;;12.43;9.40;;;;;;;;;;4136418;34;20130;-62
2022/03/11 06:50:01;;;;;;;13.38;9.70;;;;;;;;;;4136331;34;20143;-62
2022/03/11 06:52:27;;;;;;;12.35;9.70;;;;;;;;;;4136411;34;20539;-62
2022/03/11 06:54:53;;;;;;;14.35;9.68;;;;;;;;;;4136292;34;20130;-61
2022/03/11 06:57:20;;;;;;;13.32;10.40;;;;;;;;;;4136350;34;20194;-63
2022/03/11 06:59:47;;;;;;;12.95;10.23;;;;;;;;;;4136331;34;20107;-63
2022/03/11 07:02:14;;;;;;;13.38;10.38;;;;;;;;;;4124036;34;20130;-63
2022/03/11 07:04:41;;;;;;;16.17;9.95;;;;;;;;;;4135941;34;20110;-62
2022/03/11 07:07:07;;;;;;;14.02;10.85;;;;;;;;;;4123534;34;20200;-62
2022/03/11 07:09:34;;;;;;;13.48;9.35;;;;;;;;;;4135976;34;20135;-62
2022/03/11 07:12:03;;;;;;;10.98;9.10;;;;;;;;;;4136056;34;20119;-62
2022/03/11 07:14:30;;;;;;;12.02;10.38;;;;;;;;;;4136143;34;20115;-63
2022/03/11 07:16:57;;;;;;;12.60;10.38;;;;;;;;;;4136098;34;20214;-62
2022/03/11 07:19:23;;;;;;;12.13;9.85;;;;;;;;;;4123642;34;20541;-62
2022/03/11 07:21:49;;;;;;;11.73;10.07;;;;;;;;;;4135963;34;20106;-62
2022/03/11 07:24:15;;;;;;;13.90;10.13;;;;;;;;;;4123301;34;20142;-62
2022/03/11 07:26:41;;;;;;;12.57;9.15;;;;;;;;;;4136078;34;20197;-62
2022/03/11 07:29:07;;;;;;;12.57;9.40;;;;;;;;;;4136002;34;20119;-62
2022/03/11 07:31:33;;;;;;;13.93;10.00;;;;;;;;;;4123518;34;20107;-64
2022/03/11 07:33:59;;;;;;;14.23;10.73;;;;;;;;;;4136974;34;20133;-60
2022/03/11 07:36:26;;;;;;;13.52;10.15;;;;;;;;;;4125616;34;20123;-62
2022/03/11 07:38:52;;;;;;;13.77;9.82;;;;;;;;;;4138105;34;20212;-63
2022/03/11 07:41:18;;;;;;;11.45;9.63;;;;;;;;;;4136529;34;20110;-63
2022/03/11 07:43:47;;;;;;;13.45;10.43;;;;;;;;;;4136494;34;20123;-61
2022/03/11 07:46:16;;;;;;;13.70;11.35;;;;;;;;;;4126039;34;20092;-64
2022/03/11 07:48:42;;;;;;;12.43;9.75;;;;;;;;;;4137906;34;20143;-63
2022/03/11 07:51:09;;;;;;;11.18;9.70;;;;;;;;;;4137983;34;20118;-62
2022/03/11 07:53:35;;;;;;;11.65;10.45;;;;;;;;;;4125585;34;20563;-63
2022/03/11 07:56:04;;;;;;;14.13;10.45;;;;;;;;;;4137938;34;20119;-62
2022/03/11 07:58:30;;;;;;;11.68;9.43;;;;;;;;;;4137789;34;20108;-64
2022/03/11 08:00:56;;;;;;;18.75;9.63;;;;;;;;;;4136513;34;20119;-64
2022/03/11 08:03:23;;;;;;;12.20;9.77;;;;;;;;;;4125516;34;20189;-64
2022/03/11 08:05:49;;;;;;;13.82;9.55;;;;;;;;;;4137642;34;20131;-64
2022/03/11 08:08:15;;;;;;;13.65;9.50;;;;;;;;;;4137746;34;20460;-63
2022/03/11 08:10:42;;;;;;;14.57;9.43;;;;;;;;;;4137561;34;20472;-64
2022/03/11 08:13:08;;;;;;;12.05;9.20;;;;;;;;;;4137986;34;20107;-63
2022/03/11 08:15:37;;;;;;;12.70;9.85;;;;;;;;;;4137767;34;20159;-63
2022/03/11 08:18:03;;;;;;;10.60;9.23;;;;;;;;;;4137644;34;20216;-63
2022/03/11 08:20:30;;;;;;;11.68;9.13;;;;;;;;;;4125038;34;20103;-63
2022/03/11 08:22:56;;;;;;;10.07;9.05;;;;;;;;;;4137740;34;20091;-63
2022/03/11 08:25:26;;;;;;;12.35;9.80;;;;;;;;;;4137633;34;20099;-63
2022/03/11 08:27:53;;;;;;;10.65;9.20;;;;;;;;;;4137706;34;20196;-63
2022/03/11 08:30:20;;;;;;;14.93;9.98;;;;;;;;;;4137716;34;20445;-62
2022/03/11 08:32:48;;;;;;;12.98;9.80;;;;;;;;;;4137509;34;20503;-63
2022/03/11 08:35:14;;;;;;;11.55;9.68;;;;;;;;;;4137514;34;20119;-63
2022/03/11 08:37:41;;;;;;;10.98;9.40;;;;;;;;;;4137480;34;20120;-62
2022/03/11 08:40:09;;;;;;;14.63;10.23;;;;;;;;;;4137359;34;20146;-63
2022/03/11 08:42:35;;;;;;;13.05;10.13;;;;;;;;;;4137707;34;20091;-64
2022/03/11 08:45:05;;;;;;;11.65;9.45;;;;;;;;;;4137177;34;20127;-63
2022/03/11 08:47:31;;;;;;;12.05;9.48;;;;;;;;;;4137643;34;20107;-63
2022/03/11 08:49:58;;;;;;;12.37;9.65;;;;;;;;;;4137404;34;20148;-64
2022/03/11 08:52:27;;;;;;;12.02;9.63;;;;;;;;;;4136177;34;20119;-63
2022/03/11 08:54:53;;;;;;;14.73;10.40;;;;;;;;;;4137408;34;20141;-63
2022/03/11 08:57:19;;;;;;;14.52;11.60;;;;;;;;;;4124778;34;20496;-63
2022/03/11 08:59:45;;;;;;;12.80;10.32;;;;;;;;;;4137173;34;20135;-64
2022/03/11 09:02:13;;;;;;;12.48;9.90;;;;;;;;;;4137266;34;20127;-64
2022/03/11 09:04:39;;;;;;;12.20;10.13;;;;;;;;;;4124865;34;20680;-64
2022/03/11 09:07:05;;;;;;;15.48;10.40;;;;;;;;;;4124693;34;20115;-63
2022/03/11 09:09:32;;;;;;;14.98;8.90;;;;;;;;;;4137166;34;20441;-62
2022/03/11 09:11:59;;;;;;;12.68;9.20;;;;;;;;;;4136080;34;20111;-63
2022/03/11 09:14:25;;;;;;;14.00;10.07;;;;;;;;;;4137249;34;20115;-64
2022/03/11 09:16:51;;;;;;;12.57;9.63;;;;;;;;;;4113484;34;20132;-63
2022/03/11 09:19:17;;;;;;;11.88;9.63;;;;;;;;;;4124812;34;20480;-63
2022/03/11 09:21:43;;;;;;;13.38;10.57;;;;;;;;;;4136834;34;20538;-64
2022/03/11 09:24:09;;;;;;;10.90;9.60;;;;;;;;;;4137102;34;20469;-64
2022/03/11 09:26:35;;;;;;;14.30;9.63;;;;;;;;;;4124449;34;20139;-63
2022/03/11 09:29:01;;;;;;;12.48;9.13;;;;;;;;;;4137095;34;20119;-64
2022/03/11 09:31:27;;;;;;;11.63;9.48;;;;;;;;;;4136928;34;20122;-68
2022/03/11 09:33:53;;;;;;;13.10;9.85;;;;;;;;;;4124777;34;20123;-68
2022/03/11 09:36:19;;;;;;;12.27;9.68;;;;;;;;;;4135886;34;20115;-66
2022/03/11 09:38:46;;;;;;;12.70;9.35;;;;;;;;;;4137055;34;20103;-67
2022/03/11 09:41:12;;;;;;;12.85;9.30;;;;;;;;;;4136882;34;20131;-67
2022/03/11 09:43:39;;;;;;;13.25;9.85;;;;;;;;;;4135873;34;20216;-67
2022/03/11 09:46:06;;;;;;;14.68;10.13;;;;;;;;;;4137036;34;20108;-68
2022/03/11 09:48:33;;;;;;;12.48;9.93;;;;;;;;;;4124550;34;20134;-69
2022/03/11 09:50:59;;;;;;;13.10;10.07;;;;;;;;;;4124672;34;20112;-69
2022/03/11 09:53:27;;;;;;;11.07;9.15;;;;;;;;;;4124527;34;20514;-69
2022/03/11 09:55:54;;;;;;;12.32;9.13;;;;;;;;;;4123897;34;20204;-68
2022/03/11 09:58:20;;;;;;;11.32;8.98;;;;;;;;;;4124725;34;20095;-69
2022/03/11 10:00:48;;;;;;;11.85;9.00;;;;;;;;;;4137120;34;20100;-67
2022/03/11 10:03:15;;;;;;;11.70;9.15;;;;;;;;;;4124929;34;20119;-66
2022/03/11 10:05:48;;;;;;;10.82;9.20;;;;;;;;;;4135137;34;20226;-67
2022/03/11 10:08:15;;;;;;;9.82;8.77;;;;;;;;;;4124396;34;20177;-67
2022/03/11 10:10:42;;;;;;;10.77;9.35;;;;;;;;;;4124110;34;20580;-67
2022/03/11 10:13:10;;;;;;;11.30;9.45;;;;;;;;;;4124557;34;20155;-68
2022/03/11 10:15:36;;;;;;;12.07;8.73;;;;;;;;;;4124102;34;20128;-68
2022/03/11 10:18:03;;;;;;;16.30;9.18;;;;;;;;;;4124220;34;20563;-69
2022/03/11 10:20:30;;;;;;;14.05;9.50;;;;;;;;;;4124109;34;20150;-69
2022/03/11 10:22:57;;;;;;;12.18;9.07;;;;;;;;;;4136624;34;20533;-68
2022/03/11 10:25:27;;;;;;;13.38;9.65;;;;;;;;;;4122972;34;20134;-68
2022/03/11 10:27:54;;;;;;;11.73;9.45;;;;;;;;;;4132988;34;20142;-69
2022/03/11 10:30:21;;;;;;;13.40;10.50;;;;;;;;;;4136521;34;20462;-70
2022/03/11 10:33:07;;;;;;;12.10;9.07;;;;;;;;;;4124333;34;20123;-69
2022/03/11 10:35:37;;;;;;;12.60;8.95;;;;;;;;;;4124393;34;20200;-73
2022/03/11 10:38:04;;;;;;;12.93;10.90;;;;;;;;;;4136429;34;20111;-73
2022/03/11 10:40:31;;;;;;;11.20;9.20;;;;;;;;;;4136512;34;20555;-73
2022/03/11 10:43:12;;;;;;;11.95;9.27;;;;;;;;;;4124028;34;20099;-71
2022/03/11 10:45:56;;;;;;;14.02;8.80;;;;;;;;;;4123785;34;20139;-67
2022/03/11 10:48:45;;;;;;;10.90;8.60;;;;;;;;;;4136458;34;20119;-69
2022/03/11 10:51:25;;;;;;;10.55;9.45;;;;;;;;;;4136486;34;20100;-68
2022/03/11 10:53:51;;;;;;;12.35;9.35;;;;;;;;;;4124208;34;20209;-70
2022/03/11 10:56:39;;;;;;;12.13;9.75;;;;;;;;;;4123036;34;20114;-69
2022/03/11 10:59:07;;;;;;;12.85;9.88;;;;;;;;;;4132410;34;20138;-70
2022/03/11 11:01:41;;;;;;;10.73;9.45;;;;;;;;;;4131989;34;20631;-69
2022/03/11 11:04:09;;;;;;;11.82;9.32;;;;;;;;;;4132147;34;20710;-67
2022/03/11 11:06:36;;;;;;;11.80;9.50;;;;;;;;;;4132289;34;20135;-68
2022/03/11 11:09:03;;;;;;;12.23;9.55;;;;;;;;;;4124011;34;20118;-66
2022/03/11 11:11:30;;;;;;;11.10;8.85;;;;;;;;;;4136207;34;20129;-67
2022/03/11 11:13:58;;;;;;;10.70;9.52;;;;;;;;;;4136310;34;20655;-66
2022/03/11 11:16:28;;;;;;;11.15;8.30;;;;;;;;;;4134558;34;20550;-66
2022/03/11 11:18:57;;;;;;;10.23;8.38;;;;;;;;;;4123016;34;20111;-66
2022/03/11 11:21:25;;;;;;;10.93;9.00;;;;;;;;;;4135875;34;20123;-67
2022/03/11 11:23:57;;;;;;;12.30;8.52;;;;;;;;;;4134120;34;20120;-67
2022/03/11 11:26:25;;;;;;;11.85;9.75;;;;;;;;;;4136042;34;20138;-65
2022/03/11 11:28:57;;;;;;;14.45;9.82;;;;;;;;;;4135859;34;20477;-65
2022/03/11 11:31:24;;;;;;;11.57;8.68;;;;;;;;;;4123652;34;20196;-66
2022/03/11 11:33:50;;;;;;;13.45;8.80;;;;;;;;;;4123562;34;20579;-66
2022/03/11 11:36:37;;;;;;;11.80;9.25;;;;;;;;;;4136123;34;20092;-66
2022/03/11 11:39:05;;;;;;;10.65;9.23;;;;;;;;;;4135963;34;20111;-66
2022/03/11 11:41:33;;;;;;;12.45;9.55;;;;;;;;;;4135938;34;20577;-66
2022/03/11 11:44:06;;;;;;;10.10;8.52;;;;;;;;;;4135981;34;20080;-67
2022/03/11 11:46:35;;;;;;;12.10;9.23;;;;;;;;;;4123281;34;20134;-67
2022/03/11 11:49:16;;;;;;;11.32;8.98;;;;;;;;;;4135824;34;20134;-67
2022/03/11 11:51:42;;;;;;;11.32;10.10;;;;;;;;;;4135753;34;20111;-67
2022/03/11 11:54:08;;;;;;;11.77;8.82;;;;;;;;;;4135785;34;20540;-66
2022/03/11 11:56:44;;;;;;;12.75;9.20;;;;;;;;;;4123456;34;20129;-67
2022/03/11 11:59:15;;;;;;;15.13;9.45;;;;;;;;;;4135781;34;20671;-67
2022/03/11 12:01:48;;;;;;;11.20;9.18;;;;;;;;;;4134371;34;20216;-66
2022/03/11 12:04:24;;;;;;;13.80;9.27;;;;;;;;;;4123486;34;20108;-68
2022/03/11 12:07:04;;;;;;;10.98;9.73;;;;;;;;;;4123308;34;20615;-67
2022/03/11 12:09:51;;;;;;;12.13;8.98;;;;;;;;;;4136006;34;20484;-67
2022/03/11 12:12:20;;;;;;;13.02;9.20;;;;;;;;;;4135614;34;20096;-68
2022/03/11 12:15:01;;;;;;;11.50;9.32;;;;;;;;;;4135778;34;20111;-67
2022/03/11 12:17:41;;;;;;;11.40;8.93;;;;;;;;;;4122966;34;20509;-66
2022/03/11 12:20:31;;;;;;;11.90;10.40;;;;;;;;;;4113238;34;20558;-67
2022/03/11 12:23:05;;;;;;;13.43;10.35;;;;;;;;;;4137772;34;20220;-66
2022/03/11 12:25:35;;;;;;;12.63;10.13;;;;;;;;;;4114644;34;20119;-67
2022/03/11 12:28:09;;;;;;;12.82;9.93;;;;;;;;;;4137937;34;20099;-67
2022/03/11 12:30:48;;;;;;;11.40;9.27;;;;;;;;;;4137778;34;20253;-66
2022/03/11 12:33:17;;;;;;;11.50;9.95;;;;;;;;;;4137549;34;20100;-67
2022/03/11 12:35:45;;;;;;;11.73;9.82;;;;;;;;;;4137529;34;20118;-68
2022/03/11 12:38:17;;;;;;;11.15;9.48;;;;;;;;;;4137779;34;20123;-67
2022/03/11 12:40:44;;;;;;;13.23;10.32;;;;;;;;;;4137415;34;20199;-68
2022/03/11 12:43:11;;;;;;;14.25;10.25;;;;;;;;;;4124859;34;20524;-68
2022/03/11 12:45:41;;;;;;;14.90;10.57;;;;;;;;;;4124939;34;20104;-70
2022/03/11 12:48:09;;;;;;;13.25;11.05;;;;;;;;;;4137275;34;20090;-66
2022/03/11 12:50:36;;;;;;;13.18;10.38;;;;;;;;;;4125072;34;20108;-67
2022/03/11 12:53:04;;;;;;;13.27;10.32;;;;;;;;;;4136068;34;20095;-67
2022/03/11 12:55:33;;;;;;;13.93;10.48;;;;;;;;;;4113826;34;20123;-68
2022/03/11 12:58:02;;;;;;;12.27;9.98;;;;;;;;;;4137395;34;20556;-69
2022/03/11 13:00:32;;;;;;;13.68;11.00;;;;;;;;;;4125208;34;20102;-68
2022/03/11 13:02:59;;;;;;;16.52;12.63;;;;;;;;;;4137250;34;20123;-68
2022/03/11 13:05:27;;;;;;;16.10;11.35;;;;;;;;;;4137233;34;20489;-68
2022/03/11 13:07:58;;;;;;;13.82;10.18;;;;;;;;;;4124739;34;20123;-69
2022/03/11 13:10:26;;;;;;;13.38;10.20;;;;;;;;;;4124808;34;20103;-69
2022/03/11 13:12:53;;;;;;;13.02;10.20;;;;;;;;;;4135737;34;20548;-69
2022/03/11 13:15:24;;;;;;;12.00;9.90;;;;;;;;;;4113688;34;20123;-69
2022/03/11 13:17:51;;;;;;;13.80;10.10;;;;;;;;;;4124596;34;20159;-69
2022/03/11 13:20:34;;;;;;;10.80;8.65;;;;;;;;;;4124486;34;20103;-69
2022/03/11 13:23:24;;;;;;;11.25;9.07;;;;;;;;;;4135785;34;20111;-69
2022/03/11 13:25:58;;;;;;;12.48;8.55;;;;;;;;;;4124750;34;20487;-70
2022/03/11 13:28:28;;;;;;;11.75;8.23;;;;;;;;;;4124859;34;20232;-67
2022/03/11 13:31:20;;;;;;;9.25;8.23;;;;;;;;;;4136348;34;20102;-70
2022/03/11 13:33:48;;;;;;;11.40;7.80;;;;;;;;;;4120199;34;20106;-70
2022/03/11 13:36:16;;;;;;;10.82;8.88;;;;;;;;;;4124670;34;20474;-69
2022/03/11 13:38:46;;;;;;;14.30;8.95;;;;;;;;;;4135690;34;20116;-68
2022/03/11 13:41:31;;;;;;;9.88;8.27;;;;;;;;;;4135590;34;20134;-68
2022/03/11 13:44:07;;;;;;;12.73;8.13;;;;;;;;;;4135723;34;20087;-68
2022/03/11 13:46:38;;;;;;;13.13;9.13;;;;;;;;;;4124403;34;20279;-68
2022/03/11 13:49:07;;;;;;;12.55;9.30;;;;;;;;;;4124108;34;20123;-67
2022/03/11 13:51:40;;;;;;;13.27;9.30;;;;;;;;;;4102495;34;20108;-68
2022/03/11 13:54:06;;;;;;;11.45;9.95;;;;;;;;;;4136708;34;20115;-68
2022/03/11 13:56:38;;;;;;;13.20;9.85;;;;;;;;;;4135408;34;20216;-69
2022/03/11 13:59:08;;;;;;;12.55;9.93;;;;;;;;;;4124520;34;20115;-69
2022/03/11 14:01:39;;;;;;;13.52;11.00;;;;;;;;;;4135515;34;20520;-69
2022/03/11 14:04:19;;;;;;;16.00;9.40;;;;;;;;;;4124029;34;20127;-69
2022/03/11 14:06:45;;;;;;;16.75;10.30;;;;;;;;;;4113088;34;20126;-69
2022/03/11 14:09:11;;;;;;;14.90;12.07;;;;;;;;;;4113176;34;20084;-69
2022/03/11 14:11:38;;;;;;;22.30;17.20;;;;;;;;;;4136832;34;20119;-71
2022/03/11 14:14:27;;;;;;;23.05;19.20;;;;;;;;;;4136720;34;20513;-68
2022/03/11 14:16:58;;;;;;;15.20;11.18;;;;;;;;;;4136745;34;20203;-69
2022/03/11 14:19:24;;;;;;;15.20;11.77;;;;;;;;;;4136657;34;20139;-69
2022/03/11 14:21:51;;;;;;;20.98;11.48;;;;;;;;;;4136603;34;20151;-71
2022/03/11 14:24:18;;;;;;;15.57;11.90;;;;;;;;;;4136638;34;20106;-68
2022/03/11 14:26:44;;;;;;;15.82;10.48;;;;;;;;;;4136635;34;20107;-68
2022/03/11 14:29:10;;;;;;;14.32;11.18;;;;;;;;;;4124058;34;20134;-68
2022/03/11 14:31:37;;;;;;;16.83;11.98;;;;;;;;;;4136600;34;20609;-68
2022/03/11 14:34:04;;;;;;;21.70;15.98;;;;;;;;;;4124311;34;20075;-69
2022/03/11 14:36:31;;;;;;;13.77;11.27;;;;;;;;;;4136313;34;20134;-70
2022/03/11 14:38:57;;;;;;;14.82;11.45;;;;;;;;;;4136064;34;20543;-69
2022/03/11 14:41:26;;;;;;;15.07;12.98;;;;;;;;;;4124592;34;20122;-70
2022/03/11 14:43:53;;;;;;;14.57;13.02;;;;;;;;;;4123737;34;20102;-70
2022/03/11 14:46:20;;;;;;;19.58;13.68;;;;;;;;;;4136640;34;20098;-71
2022/03/11 14:48:46;;;;;;;16.58;13.25;;;;;;;;;;4136470;34;20118;-72
2022/03/11 14:51:12;;;;;;;17.98;10.73;;;;;;;;;;4136950;34;20127;-72
2022/03/11 14:53:38;;;;;;;11.27;9.45;;;;;;;;;;4135257;34;20135;-70